sensor_id;sensor_type;location;lat;lon;timestamp;P1;durP1;ratioP1;P2;durP2;ratioP2
19004;SDS011;9635;52.078;8.648;2023-03-23T00:02:36;8.93;;;3.40;;
19004;SDS011;9635;52.078;8.648;2023-03-23T00:07:38;7.33;;;3.67;;
19004;SDS011;9635;52.078;8.648;2023-03-23T00:12:47;8.43;;;3.67;;
19004;SDS011;9635;52.078;8.648;2023-03-23T00:17:49;8.23;;;3.53;;
19004;SDS011;9635;52.078;8.648;2023-03-23T00:22:51;8.73;;;3.80;;
19004;SDS011;9635;52.078;8.648;2023-03-23T00:27:54;7.10;;;4.20;;
19004;SDS011;9635;52.078;8.648;2023-03-23T00:32:56;6.88;;;3.47;;
19004;SDS011;9635;52.078;8.648;2023-03-23T00:37:58;6.17;;;3.80;;
19004;SDS011;9635;52.078;8.648;2023-03-23T00:43:01;4.70;;;3.17;;
19004;SDS011;9635;52.078;8.648;2023-03-23T00:48:05;5.93;;;3.95;;
19004;SDS011;9635;52.078;8.648;2023-03-23T00:53:07;6.10;;;3.17;;
19004;SDS011;9635;52.078;8.648;2023-03-23T00:58:10;8.10;;;4.40;;
19004;SDS011;9635;52.078;8.648;2023-03-23T01:03:12;7.50;;;4.18;;
19004;SDS011;9635;52.078;8.648;2023-03-23T01:08:18;6.60;;;3.92;;
19004;SDS011;9635;52.078;8.648;2023-03-23T01:13:22;7.78;;;3.75;;
19004;SDS011;9635;52.078;8.648;2023-03-23T01:18:24;6.22;;;3.53;;
19004;SDS011;9635;52.078;8.648;2023-03-23T01:23:26;6.32;;;3.47;;
19004;SDS011;9635;52.078;8.648;2023-03-23T01:28:29;5.47;;;3.20;;
19004;SDS011;9635;52.078;8.648;2023-03-23T01:33:31;5.70;;;2.17;;
19004;SDS011;9635;52.078;8.648;2023-03-23T01:38:34;6.60;;;3.20;;
19004;SDS011;9635;52.078;8.648;2023-03-23T01:49:01;7.05;;;2.95;;
19004;SDS011;9635;52.078;8.648;2023-03-23T01:54:10;3.53;;;2.97;;
19004;SDS011;9635;52.078;8.648;2023-03-23T01:59:21;3.75;;;2.58;;
19004;SDS011;9635;52.078;8.648;2023-03-23T02:04:39;3.83;;;2.20;;
19004;SDS011;9635;52.078;8.648;2023-03-23T02:14:45;5.43;;;2.47;;
19004;SDS011;9635;52.078;8.648;2023-03-23T02:19:55;7.15;;;2.67;;
19004;SDS011;9635;52.078;8.648;2023-03-23T02:25:17;5.15;;;2.60;;
19004;SDS011;9635;52.078;8.648;2023-03-23T02:30:38;5.05;;;2.70;;
19004;SDS011;9635;52.078;8.648;2023-03-23T02:35:51;3.35;;;2.70;;
19004;SDS011;9635;52.078;8.648;2023-03-23T02:40:56;5.38;;;2.75;;
19004;SDS011;9635;52.078;8.648;2023-03-23T02:46:03;6.55;;;3.13;;
19004;SDS011;9635;52.078;8.648;2023-03-23T02:51:08;3.45;;;2.40;;
19004;SDS011;9635;52.078;8.648;2023-03-23T02:56:13;5.57;;;2.60;;
19004;SDS011;9635;52.078;8.648;2023-03-23T03:01:45;3.50;;;2.65;;
19004;SDS011;9635;52.078;8.648;2023-03-23T03:06:55;4.05;;;2.10;;
19004;SDS011;9635;52.078;8.648;2023-03-23T03:12:21;3.78;;;2.35;;
19004;SDS011;9635;52.078;8.648;2023-03-23T03:22:38;4.82;;;2.10;;
19004;SDS011;9635;52.078;8.648;2023-03-23T03:27:44;3.42;;;1.83;;
19004;SDS011;9635;52.078;8.648;2023-03-23T03:32:56;2.03;;;1.73;;
19004;SDS011;9635;52.078;8.648;2023-03-23T03:38:05;2.35;;;1.80;;
19004;SDS011;9635;52.078;8.648;2023-03-23T03:43:09;1.95;;;1.33;;
19004;SDS011;9635;52.078;8.648;2023-03-23T03:48:11;5.03;;;1.83;;
19004;SDS011;9635;52.078;8.648;2023-03-23T03:53:14;4.05;;;2.08;;
19004;SDS011;9635;52.078;8.648;2023-03-23T03:58:17;3.95;;;1.98;;
19004;SDS011;9635;52.078;8.648;2023-03-23T04:03:38;2.85;;;2.10;;
19004;SDS011;9635;52.078;8.648;2023-03-23T04:08:49;5.43;;;1.60;;
19004;SDS011;9635;52.078;8.648;2023-03-23T04:13:51;2.67;;;1.25;;
19004;SDS011;9635;52.078;8.648;2023-03-23T04:18:55;4.07;;;2.10;;
19004;SDS011;9635;52.078;8.648;2023-03-23T04:24:01;2.92;;;1.70;;
19004;SDS011;9635;52.078;8.648;2023-03-23T04:29:03;1.63;;;1.33;;
19004;SDS011;9635;52.078;8.648;2023-03-23T04:34:08;3.38;;;1.75;;
19004;SDS011;9635;52.078;8.648;2023-03-23T04:39:19;2.30;;;1.48;;
19004;SDS011;9635;52.078;8.648;2023-03-23T04:44:21;2.55;;;1.50;;
19004;SDS011;9635;52.078;8.648;2023-03-23T04:49:35;2.65;;;1.50;;
19004;SDS011;9635;52.078;8.648;2023-03-23T04:54:55;4.13;;;2.10;;
19004;SDS011;9635;52.078;8.648;2023-03-23T04:59:57;1.90;;;1.27;;
19004;SDS011;9635;52.078;8.648;2023-03-23T05:05:12;1.70;;;1.30;;
19004;SDS011;9635;52.078;8.648;2023-03-23T05:10:17;2.13;;;1.70;;
19004;SDS011;9635;52.078;8.648;2023-03-23T05:15:20;1.50;;;1.20;;
19004;SDS011;9635;52.078;8.648;2023-03-23T05:20:23;1.40;;;1.30;;
19004;SDS011;9635;52.078;8.648;2023-03-23T05:25:33;1.55;;;1.27;;
19004;SDS011;9635;52.078;8.648;2023-03-23T05:30:41;1.52;;;1.40;;
19004;SDS011;9635;52.078;8.648;2023-03-23T05:35:45;1.95;;;1.25;;
19004;SDS011;9635;52.078;8.648;2023-03-23T05:40:52;2.67;;;1.45;;
19004;SDS011;9635;52.078;8.648;2023-03-23T05:46:01;3.72;;;1.40;;
19004;SDS011;9635;52.078;8.648;2023-03-23T05:51:05;2.17;;;1.45;;
19004;SDS011;9635;52.078;8.648;2023-03-23T05:56:13;2.47;;;1.27;;
19004;SDS011;9635;52.078;8.648;2023-03-23T06:01:34;1.55;;;1.23;;
19004;SDS011;9635;52.078;8.648;2023-03-23T06:06:36;4.07;;;1.33;;
19004;SDS011;9635;52.078;8.648;2023-03-23T06:11:45;2.78;;;1.38;;
19004;SDS011;9635;52.078;8.648;2023-03-23T06:17:10;3.60;;;2.00;;
19004;SDS011;9635;52.078;8.648;2023-03-23T06:22:13;3.92;;;1.38;;
19004;SDS011;9635;52.078;8.648;2023-03-23T06:37:45;3.08;;;1.40;;
19004;SDS011;9635;52.078;8.648;2023-03-23T06:42:57;2.38;;;1.55;;
19004;SDS011;9635;52.078;8.648;2023-03-23T06:48:20;2.03;;;1.20;;
19004;SDS011;9635;52.078;8.648;2023-03-23T06:53:22;3.03;;;1.67;;
19004;SDS011;9635;52.078;8.648;2023-03-23T06:58:29;4.63;;;1.45;;
19004;SDS011;9635;52.078;8.648;2023-03-23T07:03:31;2.38;;;1.52;;
19004;SDS011;9635;52.078;8.648;2023-03-23T07:08:34;2.88;;;1.77;;
19004;SDS011;9635;52.078;8.648;2023-03-23T07:13:39;3.55;;;1.67;;
19004;SDS011;9635;52.078;8.648;2023-03-23T07:18:43;4.53;;;2.90;;
19004;SDS011;9635;52.078;8.648;2023-03-23T07:23:45;2.63;;;1.40;;
19004;SDS011;9635;52.078;8.648;2023-03-23T07:28:56;2.35;;;1.60;;
19004;SDS011;9635;52.078;8.648;2023-03-23T07:34:04;2.15;;;1.50;;
19004;SDS011;9635;52.078;8.648;2023-03-23T07:39:25;2.13;;;1.40;;
19004;SDS011;9635;52.078;8.648;2023-03-23T07:44:30;3.47;;;1.88;;
19004;SDS011;9635;52.078;8.648;2023-03-23T07:49:39;7.15;;;1.75;;
19004;SDS011;9635;52.078;8.648;2023-03-23T07:54:55;3.03;;;1.58;;
19004;SDS011;9635;52.078;8.648;2023-03-23T08:00:11;6.75;;;1.92;;
19004;SDS011;9635;52.078;8.648;2023-03-23T08:05:16;2.78;;;2.13;;
19004;SDS011;9635;52.078;8.648;2023-03-23T08:10:37;6.20;;;1.65;;
19004;SDS011;9635;52.078;8.648;2023-03-23T08:16:06;3.22;;;2.20;;
19004;SDS011;9635;52.078;8.648;2023-03-23T08:21:41;4.53;;;2.20;;
19004;SDS011;9635;52.078;8.648;2023-03-23T08:27:10;5.25;;;2.35;;
19004;SDS011;9635;52.078;8.648;2023-03-23T08:32:16;3.95;;;2.08;;
19004;SDS011;9635;52.078;8.648;2023-03-23T08:37:40;4.00;;;1.98;;
19004;SDS011;9635;52.078;8.648;2023-03-23T08:42:53;3.95;;;1.30;;
19004;SDS011;9635;52.078;8.648;2023-03-23T08:48:16;8.13;;;2.35;;
19004;SDS011;9635;52.078;8.648;2023-03-23T08:53:38;6.28;;;2.28;;
19004;SDS011;9635;52.078;8.648;2023-03-23T08:59:00;2.67;;;1.90;;
19004;SDS011;9635;52.078;8.648;2023-03-23T09:04:30;6.18;;;1.92;;
19004;SDS011;9635;52.078;8.648;2023-03-23T09:09:47;5.60;;;2.20;;
19004;SDS011;9635;52.078;8.648;2023-03-23T09:14:49;2.72;;;1.60;;
19004;SDS011;9635;52.078;8.648;2023-03-23T09:19:52;4.35;;;1.60;;
19004;SDS011;9635;52.078;8.648;2023-03-23T09:24:54;6.78;;;1.70;;
19004;SDS011;9635;52.078;8.648;2023-03-23T09:29:56;5.57;;;1.73;;
19004;SDS011;9635;52.078;8.648;2023-03-23T09:35:00;4.47;;;2.15;;
19004;SDS011;9635;52.078;8.648;2023-03-23T09:40:02;8.90;;;2.80;;
19004;SDS011;9635;52.078;8.648;2023-03-23T09:45:08;5.00;;;2.28;;
19004;SDS011;9635;52.078;8.648;2023-03-23T09:50:19;3.95;;;1.92;;
19004;SDS011;9635;52.078;8.648;2023-03-23T09:55:24;7.72;;;1.95;;
19004;SDS011;9635;52.078;8.648;2023-03-23T10:00:29;4.82;;;2.15;;
19004;SDS011;9635;52.078;8.648;2023-03-23T10:05:35;3.92;;;1.98;;
19004;SDS011;9635;52.078;8.648;2023-03-23T10:10:42;2.80;;;1.67;;
19004;SDS011;9635;52.078;8.648;2023-03-23T10:15:49;6.13;;;2.70;;
19004;SDS011;9635;52.078;8.648;2023-03-23T10:20:54;6.40;;;1.98;;
19004;SDS011;9635;52.078;8.648;2023-03-23T10:26:00;5.60;;;2.05;;
19004;SDS011;9635;52.078;8.648;2023-03-23T10:31:06;6.82;;;2.50;;
19004;SDS011;9635;52.078;8.648;2023-03-23T10:36:15;11.77;;;2.40;;
19004;SDS011;9635;52.078;8.648;2023-03-23T10:41:21;9.05;;;2.35;;
19004;SDS011;9635;52.078;8.648;2023-03-23T10:46:26;5.10;;;2.00;;
19004;SDS011;9635;52.078;8.648;2023-03-23T10:56:39;5.72;;;1.88;;
19004;SDS011;9635;52.078;8.648;2023-03-23T11:01:43;2.70;;;0.80;;
19004;SDS011;9635;52.078;8.648;2023-03-23T11:06:51;3.25;;;0.70;;
19004;SDS011;9635;52.078;8.648;2023-03-23T11:11:54;1.05;;;0.60;;
19004;SDS011;9635;52.078;8.648;2023-03-23T11:16:57;4.95;;;0.60;;
19004;SDS011;9635;52.078;8.648;2023-03-23T11:22:06;0.75;;;0.65;;
19004;SDS011;9635;52.078;8.648;2023-03-23T11:27:10;2.10;;;0.50;;
19004;SDS011;9635;52.078;8.648;2023-03-23T11:32:12;2.60;;;0.60;;
19004;SDS011;9635;52.078;8.648;2023-03-23T11:37:18;2.88;;;0.70;;
19004;SDS011;9635;52.078;8.648;2023-03-23T11:42:24;2.58;;;0.40;;
19004;SDS011;9635;52.078;8.648;2023-03-23T11:47:32;1.42;;;0.65;;
19004;SDS011;9635;52.078;8.648;2023-03-23T11:52:41;4.18;;;0.65;;
19004;SDS011;9635;52.078;8.648;2023-03-23T11:57:48;2.50;;;0.40;;
19004;SDS011;9635;52.078;8.648;2023-03-23T12:08:48;4.57;;;0.80;;
19004;SDS011;9635;52.078;8.648;2023-03-23T12:14:03;3.60;;;1.67;;
19004;SDS011;9635;52.078;8.648;2023-03-23T12:19:16;2.75;;;0.88;;
19004;SDS011;9635;52.078;8.648;2023-03-23T12:24:30;4.63;;;1.08;;
19004;SDS011;9635;52.078;8.648;2023-03-23T12:29:44;5.97;;;1.08;;
19004;SDS011;9635;52.078;8.648;2023-03-23T12:34:54;4.30;;;1.00;;
19004;SDS011;9635;52.078;8.648;2023-03-23T12:45:43;3.10;;;1.30;;
19004;SDS011;9635;52.078;8.648;2023-03-23T12:51:03;2.60;;;0.60;;
19004;SDS011;9635;52.078;8.648;2023-03-23T12:56:16;2.75;;;0.98;;
19004;SDS011;9635;52.078;8.648;2023-03-23T13:01:22;2.45;;;0.82;;
19004;SDS011;9635;52.078;8.648;2023-03-23T13:06:29;2.60;;;0.77;;
19004;SDS011;9635;52.078;8.648;2023-03-23T13:11:37;3.60;;;0.93;;
19004;SDS011;9635;52.078;8.648;2023-03-23T13:16:42;1.85;;;0.70;;
19004;SDS011;9635;52.078;8.648;2023-03-23T13:21:53;1.10;;;0.60;;
19004;SDS011;9635;52.078;8.648;2023-03-23T13:27:02;2.75;;;0.95;;
19004;SDS011;9635;52.078;8.648;2023-03-23T13:32:05;4.18;;;1.52;;
19004;SDS011;9635;52.078;8.648;2023-03-23T13:37:19;1.30;;;1.10;;
19004;SDS011;9635;52.078;8.648;2023-03-23T13:42:25;3.15;;;1.63;;
19004;SDS011;9635;52.078;8.648;2023-03-23T13:47:35;1.48;;;1.27;;
19004;SDS011;9635;52.078;8.648;2023-03-23T13:52:46;1.13;;;0.80;;
19004;SDS011;9635;52.078;8.648;2023-03-23T14:03:00;3.30;;;2.08;;
19004;SDS011;9635;52.078;8.648;2023-03-23T14:08:08;3.95;;;2.00;;
19004;SDS011;9635;52.078;8.648;2023-03-23T14:13:19;4.75;;;2.47;;
19004;SDS011;9635;52.078;8.648;2023-03-23T14:18:23;2.38;;;2.17;;
19004;SDS011;9635;52.078;8.648;2023-03-23T14:23:27;3.22;;;2.42;;
19004;SDS011;9635;52.078;8.648;2023-03-23T14:28:37;3.80;;;2.28;;
19004;SDS011;9635;52.078;8.648;2023-03-23T14:33:40;2.30;;;2.10;;
19004;SDS011;9635;52.078;8.648;2023-03-23T14:38:42;3.70;;;2.60;;
19004;SDS011;9635;52.078;8.648;2023-03-23T14:43:45;2.92;;;2.22;;
19004;SDS011;9635;52.078;8.648;2023-03-23T14:48:48;5.85;;;3.00;;
19004;SDS011;9635;52.078;8.648;2023-03-23T14:53:51;5.90;;;3.10;;
19004;SDS011;9635;52.078;8.648;2023-03-23T14:59:00;3.10;;;2.42;;
19004;SDS011;9635;52.078;8.648;2023-03-23T15:04:06;5.43;;;2.15;;
19004;SDS011;9635;52.078;8.648;2023-03-23T15:09:11;3.30;;;3.00;;
19004;SDS011;9635;52.078;8.648;2023-03-23T15:14:18;4.43;;;2.30;;
19004;SDS011;9635;52.078;8.648;2023-03-23T15:19:23;2.65;;;2.45;;
19004;SDS011;9635;52.078;8.648;2023-03-23T15:24:32;4.55;;;2.72;;
19004;SDS011;9635;52.078;8.648;2023-03-23T15:29:45;3.88;;;2.65;;
19004;SDS011;9635;52.078;8.648;2023-03-23T15:34:50;5.45;;;3.22;;
19004;SDS011;9635;52.078;8.648;2023-03-23T15:39:53;4.70;;;3.05;;
19004;SDS011;9635;52.078;8.648;2023-03-23T15:45:05;3.63;;;2.45;;
19004;SDS011;9635;52.078;8.648;2023-03-23T15:50:32;5.70;;;3.05;;
19004;SDS011;9635;52.078;8.648;2023-03-23T15:55:36;8.50;;;2.63;;
19004;SDS011;9635;52.078;8.648;2023-03-23T16:00:40;4.15;;;2.67;;
19004;SDS011;9635;52.078;8.648;2023-03-23T16:05:44;6.30;;;2.55;;
19004;SDS011;9635;52.078;8.648;2023-03-23T16:10:47;6.60;;;3.10;;
19004;SDS011;9635;52.078;8.648;2023-03-23T16:15:52;5.63;;;2.92;;
19004;SDS011;9635;52.078;8.648;2023-03-23T16:20:55;4.45;;;2.60;;
19004;SDS011;9635;52.078;8.648;2023-03-23T16:25:58;6.80;;;3.10;;
19004;SDS011;9635;52.078;8.648;2023-03-23T16:31:03;5.82;;;2.88;;
19004;SDS011;9635;52.078;8.648;2023-03-23T16:36:06;5.93;;;3.00;;
19004;SDS011;9635;52.078;8.648;2023-03-23T16:41:12;5.32;;;3.15;;
19004;SDS011;9635;52.078;8.648;2023-03-23T16:46:16;5.15;;;3.53;;
19004;SDS011;9635;52.078;8.648;2023-03-23T16:51:19;3.83;;;2.83;;
19004;SDS011;9635;52.078;8.648;2023-03-23T16:56:21;4.57;;;2.80;;
19004;SDS011;9635;52.078;8.648;2023-03-23T17:01:26;4.82;;;3.00;;
19004;SDS011;9635;52.078;8.648;2023-03-23T17:06:29;3.60;;;3.20;;
19004;SDS011;9635;52.078;8.648;2023-03-23T17:11:32;5.22;;;3.35;;
19004;SDS011;9635;52.078;8.648;2023-03-23T17:16:36;5.20;;;3.85;;
19004;SDS011;9635;52.078;8.648;2023-03-23T17:21:40;6.15;;;3.78;;
19004;SDS011;9635;52.078;8.648;2023-03-23T17:26:43;5.93;;;4.10;;
19004;SDS011;9635;52.078;8.648;2023-03-23T17:31:47;6.00;;;2.83;;
19004;SDS011;9635;52.078;8.648;2023-03-23T17:36:50;5.53;;;3.47;;
19004;SDS011;9635;52.078;8.648;2023-03-23T17:41:53;4.80;;;4.18;;
19004;SDS011;9635;52.078;8.648;2023-03-23T17:46:57;8.23;;;3.85;;
19004;SDS011;9635;52.078;8.648;2023-03-23T17:52:01;6.75;;;3.85;;
19004;SDS011;9635;52.078;8.648;2023-03-23T17:57:04;5.18;;;3.47;;
19004;SDS011;9635;52.078;8.648;2023-03-23T18:02:09;4.38;;;3.13;;
19004;SDS011;9635;52.078;8.648;2023-03-23T18:07:15;9.10;;;4.10;;
19004;SDS011;9635;52.078;8.648;2023-03-23T18:12:23;8.52;;;4.22;;
19004;SDS011;9635;52.078;8.648;2023-03-23T18:17:27;5.32;;;3.75;;
19004;SDS011;9635;52.078;8.648;2023-03-23T18:22:30;6.47;;;4.20;;
19004;SDS011;9635;52.078;8.648;2023-03-23T18:27:33;9.20;;;4.75;;
19004;SDS011;9635;52.078;8.648;2023-03-23T18:32:38;10.68;;;5.07;;
19004;SDS011;9635;52.078;8.648;2023-03-23T18:37:41;7.82;;;4.03;;
19004;SDS011;9635;52.078;8.648;2023-03-23T18:42:44;5.97;;;3.67;;
19004;SDS011;9635;52.078;8.648;2023-03-23T18:47:48;5.15;;;3.72;;
19004;SDS011;9635;52.078;8.648;2023-03-23T18:52:54;6.03;;;3.30;;
19004;SDS011;9635;52.078;8.648;2023-03-23T18:57:57;4.53;;;3.38;;
19004;SDS011;9635;52.078;8.648;2023-03-23T19:03:01;4.65;;;3.30;;
19004;SDS011;9635;52.078;8.648;2023-03-23T19:08:06;4.43;;;3.17;;
19004;SDS011;9635;52.078;8.648;2023-03-23T19:13:10;4.47;;;3.42;;
19004;SDS011;9635;52.078;8.648;2023-03-23T19:18:14;5.45;;;2.80;;
19004;SDS011;9635;52.078;8.648;2023-03-23T19:23:17;5.15;;;3.15;;
19004;SDS011;9635;52.078;8.648;2023-03-23T19:28:20;9.25;;;3.10;;
19004;SDS011;9635;52.078;8.648;2023-03-23T19:33:44;6.78;;;2.88;;
19004;SDS011;9635;52.078;8.648;2023-03-23T19:38:47;10.73;;;3.20;;
19004;SDS011;9635;52.078;8.648;2023-03-23T19:43:50;8.30;;;3.38;;
19004;SDS011;9635;52.078;8.648;2023-03-23T19:48:54;8.15;;;3.50;;
19004;SDS011;9635;52.078;8.648;2023-03-23T19:53:57;4.63;;;2.83;;
19004;SDS011;9635;52.078;8.648;2023-03-23T19:59:01;6.82;;;2.70;;
19004;SDS011;9635;52.078;8.648;2023-03-23T20:04:06;6.47;;;2.80;;
19004;SDS011;9635;52.078;8.648;2023-03-23T20:09:09;3.10;;;2.58;;
19004;SDS011;9635;52.078;8.648;2023-03-23T20:14:12;3.17;;;2.33;;
19004;SDS011;9635;52.078;8.648;2023-03-23T20:19:16;2.80;;;2.35;;
19004;SDS011;9635;52.078;8.648;2023-03-23T20:24:20;4.63;;;2.47;;
19004;SDS011;9635;52.078;8.648;2023-03-23T20:29:22;6.15;;;2.70;;
19004;SDS011;9635;52.078;8.648;2023-03-23T20:34:26;4.00;;;2.38;;
19004;SDS011;9635;52.078;8.648;2023-03-23T20:39:32;5.03;;;2.33;;
19004;SDS011;9635;52.078;8.648;2023-03-23T20:44:37;3.63;;;2.30;;
19004;SDS011;9635;52.078;8.648;2023-03-23T20:49:41;7.18;;;2.67;;
19004;SDS011;9635;52.078;8.648;2023-03-23T20:54:54;5.93;;;2.38;;
19004;SDS011;9635;52.078;8.648;2023-03-23T20:59:57;3.83;;;2.60;;
19004;SDS011;9635;52.078;8.648;2023-03-23T21:05:01;5.00;;;2.20;;
19004;SDS011;9635;52.078;8.648;2023-03-23T21:10:05;6.55;;;2.28;;
19004;SDS011;9635;52.078;8.648;2023-03-23T21:15:08;5.13;;;2.22;;
19004;SDS011;9635;52.078;8.648;2023-03-23T21:20:13;7.38;;;2.72;;
19004;SDS011;9635;52.078;8.648;2023-03-23T21:25:15;5.22;;;3.47;;
19004;SDS011;9635;52.078;8.648;2023-03-23T21:30:34;5.50;;;2.35;;
19004;SDS011;9635;52.078;8.648;2023-03-23T21:35:38;5.72;;;2.40;;
19004;SDS011;9635;52.078;8.648;2023-03-23T21:40:42;5.40;;;2.30;;
19004;SDS011;9635;52.078;8.648;2023-03-23T21:45:45;7.82;;;2.60;;
19004;SDS011;9635;52.078;8.648;2023-03-23T21:50:50;5.22;;;2.22;;
19004;SDS011;9635;52.078;8.648;2023-03-23T21:55:53;3.60;;;1.98;;
19004;SDS011;9635;52.078;8.648;2023-03-23T22:00:56;4.40;;;2.47;;
19004;SDS011;9635;52.078;8.648;2023-03-23T22:06:06;4.72;;;2.55;;
19004;SDS011;9635;52.078;8.648;2023-03-23T22:11:12;7.13;;;2.40;;
19004;SDS011;9635;52.078;8.648;2023-03-23T22:16:16;4.13;;;2.45;;
19004;SDS011;9635;52.078;8.648;2023-03-23T22:21:22;7.05;;;2.50;;
19004;SDS011;9635;52.078;8.648;2023-03-23T22:26:27;9.50;;;2.85;;
19004;SDS011;9635;52.078;8.648;2023-03-23T22:31:32;5.93;;;2.42;;
19004;SDS011;9635;52.078;8.648;2023-03-23T22:36:37;7.68;;;2.40;;
19004;SDS011;9635;52.078;8.648;2023-03-23T22:41:41;6.88;;;2.88;;
19004;SDS011;9635;52.078;8.648;2023-03-23T22:46:44;7.75;;;2.60;;
19004;SDS011;9635;52.078;8.648;2023-03-23T22:51:48;7.32;;;1.90;;
19004;SDS011;9635;52.078;8.648;2023-03-23T22:56:51;3.45;;;1.88;;
19004;SDS011;9635;52.078;8.648;2023-03-23T23:01:54;7.55;;;1.80;;
19004;SDS011;9635;52.078;8.648;2023-03-23T23:06:59;5.22;;;1.95;;
19004;SDS011;9635;52.078;8.648;2023-03-23T23:12:13;5.22;;;1.85;;
19004;SDS011;9635;52.078;8.648;2023-03-23T23:17:17;3.47;;;1.88;;
19004;SDS011;9635;52.078;8.648;2023-03-23T23:22:21;5.30;;;1.83;;
19004;SDS011;9635;52.078;8.648;2023-03-23T23:27:24;4.40;;;1.67;;
19004;SDS011;9635;52.078;8.648;2023-03-23T23:32:27;6.18;;;1.95;;
19004;SDS011;9635;52.078;8.648;2023-03-23T23:37:31;3.08;;;1.75;;
19004;SDS011;9635;52.078;8.648;2023-03-23T23:42:34;5.82;;;1.98;;
19004;SDS011;9635;52.078;8.648;2023-03-23T23:47:37;7.15;;;2.47;;
19004;SDS011;9635;52.078;8.648;2023-03-23T23:52:42;4.07;;;2.38;;
19004;SDS011;9635;52.078;8.648;2023-03-23T23:57:46;8.32;;;1.95;;
